sensor_id;sensor_type;location;lat;lon;timestamp;P1;durP1;ratioP1;P2;durP2;ratioP2
22715;SDS011;11525;51.152;4.456;2024-03-07T00:00:05;82.55;;;58.13;;
22715;SDS011;11525;51.152;4.456;2024-03-07T00:02:43;79.57;;;59.58;;
22715;SDS011;11525;51.152;4.456;2024-03-07T00:05:15;81.43;;;59.70;;
22715;SDS011;11525;51.152;4.456;2024-03-07T00:07:45;84.50;;;60.97;;
22715;SDS011;11525;51.152;4.456;2024-03-07T00:10:11;85.05;;;61.53;;
22715;SDS011;11525;51.152;4.456;2024-03-07T00:12:38;84.10;;;60.28;;
22715;SDS011;11525;51.152;4.456;2024-03-07T00:15:06;82.90;;;61.17;;
22715;SDS011;11525;51.152;4.456;2024-03-07T00:17:32;83.80;;;62.83;;
22715;SDS011;11525;51.152;4.456;2024-03-07T00:19:58;82.05;;;61.33;;
22715;SDS011;11525;51.152;4.456;2024-03-07T00:22:24;84.97;;;61.95;;
22715;SDS011;11525;51.152;4.456;2024-03-07T00:24:52;87.97;;;63.38;;
22715;SDS011;11525;51.152;4.456;2024-03-07T00:27:18;82.75;;;61.97;;
22715;SDS011;11525;51.152;4.456;2024-03-07T00:29:45;92.35;;;64.00;;
22715;SDS011;11525;51.152;4.456;2024-03-07T00:32:18;82.82;;;60.97;;
22715;SDS011;11525;51.152;4.456;2024-03-07T00:34:44;88.22;;;64.35;;
22715;SDS011;11525;51.152;4.456;2024-03-07T00:37:10;87.03;;;64.18;;
22715;SDS011;11525;51.152;4.456;2024-03-07T00:39:35;91.15;;;62.42;;
22715;SDS011;11525;51.152;4.456;2024-03-07T00:42:01;96.15;;;66.38;;
22715;SDS011;11525;51.152;4.456;2024-03-07T00:44:27;96.63;;;67.13;;
22715;SDS011;11525;51.152;4.456;2024-03-07T00:46:53;95.32;;;64.78;;
22715;SDS011;11525;51.152;4.456;2024-03-07T00:49:18;94.03;;;66.85;;
22715;SDS011;11525;51.152;4.456;2024-03-07T00:51:45;88.40;;;63.92;;
22715;SDS011;11525;51.152;4.456;2024-03-07T00:54:11;92.07;;;65.70;;
22715;SDS011;11525;51.152;4.456;2024-03-07T00:56:38;93.47;;;68.45;;
22715;SDS011;11525;51.152;4.456;2024-03-07T00:59:04;93.35;;;66.03;;
22715;SDS011;11525;51.152;4.456;2024-03-07T01:01:30;93.43;;;68.15;;
22715;SDS011;11525;51.152;4.456;2024-03-07T01:03:58;98.57;;;66.13;;
22715;SDS011;11525;51.152;4.456;2024-03-07T01:06:25;94.60;;;67.07;;
22715;SDS011;11525;51.152;4.456;2024-03-07T01:08:51;102.30;;;69.63;;
22715;SDS011;11525;51.152;4.456;2024-03-07T01:11:17;99.63;;;69.40;;
22715;SDS011;11525;51.152;4.456;2024-03-07T01:13:42;98.03;;;67.55;;
22715;SDS011;11525;51.152;4.456;2024-03-07T01:16:08;99.88;;;70.75;;
22715;SDS011;11525;51.152;4.456;2024-03-07T01:18:34;102.20;;;70.13;;
22715;SDS011;11525;51.152;4.456;2024-03-07T01:21:00;97.38;;;68.13;;
22715;SDS011;11525;51.152;4.456;2024-03-07T01:23:27;97.78;;;69.88;;
22715;SDS011;11525;51.152;4.456;2024-03-07T01:25:54;101.95;;;71.63;;
22715;SDS011;11525;51.152;4.456;2024-03-07T01:28:21;107.85;;;72.13;;
22715;SDS011;11525;51.152;4.456;2024-03-07T01:30:48;104.63;;;72.43;;
22715;SDS011;11525;51.152;4.456;2024-03-07T01:33:17;101.70;;;72.30;;
22715;SDS011;11525;51.152;4.456;2024-03-07T01:35:46;107.90;;;70.25;;
22715;SDS011;11525;51.152;4.456;2024-03-07T01:38:13;109.00;;;72.72;;
22715;SDS011;11525;51.152;4.456;2024-03-07T01:40:42;107.50;;;75.38;;
22715;SDS011;11525;51.152;4.456;2024-03-07T01:43:09;101.88;;;73.07;;
22715;SDS011;11525;51.152;4.456;2024-03-07T01:45:35;105.50;;;73.05;;
22715;SDS011;11525;51.152;4.456;2024-03-07T01:48:05;105.55;;;72.45;;
22715;SDS011;11525;51.152;4.456;2024-03-07T01:50:32;112.85;;;72.88;;
22715;SDS011;11525;51.152;4.456;2024-03-07T01:52:59;114.38;;;73.97;;
22715;SDS011;11525;51.152;4.456;2024-03-07T01:55:26;112.75;;;75.82;;
22715;SDS011;11525;51.152;4.456;2024-03-07T01:57:52;110.20;;;74.30;;
22715;SDS011;11525;51.152;4.456;2024-03-07T02:00:21;110.28;;;74.28;;
22715;SDS011;11525;51.152;4.456;2024-03-07T02:02:47;107.68;;;74.47;;
22715;SDS011;11525;51.152;4.456;2024-03-07T02:05:13;107.25;;;73.50;;
22715;SDS011;11525;51.152;4.456;2024-03-07T02:07:39;106.43;;;75.35;;
22715;SDS011;11525;51.152;4.456;2024-03-07T02:10:05;111.90;;;73.93;;
22715;SDS011;11525;51.152;4.456;2024-03-07T02:12:31;114.63;;;75.63;;
22715;SDS011;11525;51.152;4.456;2024-03-07T02:14:58;111.95;;;75.28;;
22715;SDS011;11525;51.152;4.456;2024-03-07T02:17:24;117.63;;;75.05;;
22715;SDS011;11525;51.152;4.456;2024-03-07T02:19:50;117.03;;;76.68;;
22715;SDS011;11525;51.152;4.456;2024-03-07T02:22:17;113.93;;;77.00;;
22715;SDS011;11525;51.152;4.456;2024-03-07T02:24:43;116.05;;;77.18;;
22715;SDS011;11525;51.152;4.456;2024-03-07T02:27:10;115.40;;;75.85;;
22715;SDS011;11525;51.152;4.456;2024-03-07T02:29:36;114.75;;;75.82;;
22715;SDS011;11525;51.152;4.456;2024-03-07T02:32:02;121.43;;;77.75;;
22715;SDS011;11525;51.152;4.456;2024-03-07T02:34:28;121.40;;;78.25;;
22715;SDS011;11525;51.152;4.456;2024-03-07T02:36:54;124.57;;;81.07;;
22715;SDS011;11525;51.152;4.456;2024-03-07T02:39:20;119.75;;;77.55;;
22715;SDS011;11525;51.152;4.456;2024-03-07T02:41:46;127.57;;;77.47;;
22715;SDS011;11525;51.152;4.456;2024-03-07T02:44:15;121.30;;;76.88;;
22715;SDS011;11525;51.152;4.456;2024-03-07T02:46:41;117.47;;;77.38;;
22715;SDS011;11525;51.152;4.456;2024-03-07T02:49:07;121.70;;;78.70;;
22715;SDS011;11525;51.152;4.456;2024-03-07T02:51:34;120.10;;;77.13;;
22715;SDS011;11525;51.152;4.456;2024-03-07T02:54:00;122.70;;;78.15;;
22715;SDS011;11525;51.152;4.456;2024-03-07T02:56:26;115.65;;;76.43;;
22715;SDS011;11525;51.152;4.456;2024-03-07T02:58:52;118.85;;;76.03;;
22715;SDS011;11525;51.152;4.456;2024-03-07T03:01:17;127.97;;;81.43;;
22715;SDS011;11525;51.152;4.456;2024-03-07T03:03:49;124.03;;;78.75;;
22715;SDS011;11525;51.152;4.456;2024-03-07T03:06:15;120.70;;;76.43;;
22715;SDS011;11525;51.152;4.456;2024-03-07T03:08:41;121.35;;;73.55;;
22715;SDS011;11525;51.152;4.456;2024-03-07T03:11:06;121.80;;;77.40;;
22715;SDS011;11525;51.152;4.456;2024-03-07T03:13:38;119.93;;;77.57;;
22715;SDS011;11525;51.152;4.456;2024-03-07T03:16:05;117.90;;;74.93;;
22715;SDS011;11525;51.152;4.456;2024-03-07T03:18:34;120.57;;;77.53;;
22715;SDS011;11525;51.152;4.456;2024-03-07T03:21:00;120.90;;;79.30;;
22715;SDS011;11525;51.152;4.456;2024-03-07T03:23:27;124.65;;;78.13;;
22715;SDS011;11525;51.152;4.456;2024-03-07T03:25:53;124.22;;;78.38;;
22715;SDS011;11525;51.152;4.456;2024-03-07T03:28:20;130.10;;;81.45;;
22715;SDS011;11525;51.152;4.456;2024-03-07T03:30:47;128.65;;;81.07;;
22715;SDS011;11525;51.152;4.456;2024-03-07T03:33:13;136.85;;;85.10;;
22715;SDS011;11525;51.152;4.456;2024-03-07T03:35:40;124.47;;;76.15;;
22715;SDS011;11525;51.152;4.456;2024-03-07T03:38:06;131.23;;;81.20;;
22715;SDS011;11525;51.152;4.456;2024-03-07T03:40:33;125.90;;;79.63;;
22715;SDS011;11525;51.152;4.456;2024-03-07T03:42:59;131.70;;;81.90;;
22715;SDS011;11525;51.152;4.456;2024-03-07T03:45:25;139.45;;;83.20;;
22715;SDS011;11525;51.152;4.456;2024-03-07T03:47:52;134.38;;;82.93;;
22715;SDS011;11525;51.152;4.456;2024-03-07T03:50:18;137.60;;;82.43;;
22715;SDS011;11525;51.152;4.456;2024-03-07T03:52:44;138.40;;;82.00;;
22715;SDS011;11525;51.152;4.456;2024-03-07T03:55:10;136.98;;;82.00;;
22715;SDS011;11525;51.152;4.456;2024-03-07T03:57:37;137.88;;;76.45;;
22715;SDS011;11525;51.152;4.456;2024-03-07T04:00:05;139.70;;;82.20;;
22715;SDS011;11525;51.152;4.456;2024-03-07T04:02:41;137.68;;;79.32;;
22715;SDS011;11525;51.152;4.456;2024-03-07T04:05:11;141.48;;;80.85;;
22715;SDS011;11525;51.152;4.456;2024-03-07T04:07:38;135.63;;;80.90;;
22715;SDS011;11525;51.152;4.456;2024-03-07T04:10:04;140.85;;;79.80;;
22715;SDS011;11525;51.152;4.456;2024-03-07T04:12:34;143.45;;;84.55;;
22715;SDS011;11525;51.152;4.456;2024-03-07T04:15:02;139.68;;;82.47;;
22715;SDS011;11525;51.152;4.456;2024-03-07T04:17:30;142.10;;;80.13;;
22715;SDS011;11525;51.152;4.456;2024-03-07T04:19:56;136.32;;;78.95;;
22715;SDS011;11525;51.152;4.456;2024-03-07T04:22:23;141.73;;;75.28;;
22715;SDS011;11525;51.152;4.456;2024-03-07T04:24:49;150.80;;;83.78;;
22715;SDS011;11525;51.152;4.456;2024-03-07T04:27:19;151.70;;;85.78;;
22715;SDS011;11525;51.152;4.456;2024-03-07T04:29:46;145.55;;;82.00;;
22715;SDS011;11525;51.152;4.456;2024-03-07T04:32:13;166.35;;;100.97;;
22715;SDS011;11525;51.152;4.456;2024-03-07T04:34:39;155.05;;;91.13;;
22715;SDS011;11525;51.152;4.456;2024-03-07T04:37:05;147.05;;;87.03;;
22715;SDS011;11525;51.152;4.456;2024-03-07T04:39:30;160.18;;;90.80;;
22715;SDS011;11525;51.152;4.456;2024-03-07T04:41:59;162.93;;;87.78;;
22715;SDS011;11525;51.152;4.456;2024-03-07T04:44:26;162.00;;;88.95;;
22715;SDS011;11525;51.152;4.456;2024-03-07T04:46:52;152.68;;;88.35;;
22715;SDS011;11525;51.152;4.456;2024-03-07T04:49:25;154.45;;;86.53;;
22715;SDS011;11525;51.152;4.456;2024-03-07T04:51:54;152.15;;;86.30;;
22715;SDS011;11525;51.152;4.456;2024-03-07T04:54:20;166.45;;;88.70;;
22715;SDS011;11525;51.152;4.456;2024-03-07T04:56:47;146.55;;;75.45;;
22715;SDS011;11525;51.152;4.456;2024-03-07T04:59:14;162.80;;;88.57;;
22715;SDS011;11525;51.152;4.456;2024-03-07T05:01:42;156.80;;;87.03;;
22715;SDS011;11525;51.152;4.456;2024-03-07T05:04:08;172.95;;;92.47;;
22715;SDS011;11525;51.152;4.456;2024-03-07T05:06:34;167.93;;;87.57;;
22715;SDS011;11525;51.152;4.456;2024-03-07T05:09:04;164.45;;;81.90;;
22715;SDS011;11525;51.152;4.456;2024-03-07T05:11:32;157.98;;;79.28;;
22715;SDS011;11525;51.152;4.456;2024-03-07T05:13:59;156.35;;;85.30;;
22715;SDS011;11525;51.152;4.456;2024-03-07T05:16:26;156.88;;;88.43;;
22715;SDS011;11525;51.152;4.456;2024-03-07T05:18:53;162.32;;;87.13;;
22715;SDS011;11525;51.152;4.456;2024-03-07T05:21:19;151.20;;;77.47;;
22715;SDS011;11525;51.152;4.456;2024-03-07T05:24:04;162.93;;;87.88;;
22715;SDS011;11525;51.152;4.456;2024-03-07T05:26:30;166.93;;;88.65;;
22715;SDS011;11525;51.152;4.456;2024-03-07T05:29:05;167.23;;;91.07;;
22715;SDS011;11525;51.152;4.456;2024-03-07T05:31:42;154.60;;;84.32;;
22715;SDS011;11525;51.152;4.456;2024-03-07T05:34:13;154.68;;;84.38;;
22715;SDS011;11525;51.152;4.456;2024-03-07T05:36:40;153.50;;;76.38;;
22715;SDS011;11525;51.152;4.456;2024-03-07T05:39:10;165.02;;;87.15;;
22715;SDS011;11525;51.152;4.456;2024-03-07T05:41:37;165.98;;;91.15;;
22715;SDS011;11525;51.152;4.456;2024-03-07T05:44:03;169.63;;;89.05;;
22715;SDS011;11525;51.152;4.456;2024-03-07T05:46:33;180.65;;;96.95;;
22715;SDS011;11525;51.152;4.456;2024-03-07T05:49:00;189.60;;;91.95;;
22715;SDS011;11525;51.152;4.456;2024-03-07T05:51:26;194.77;;;92.10;;
22715;SDS011;11525;51.152;4.456;2024-03-07T05:53:52;181.50;;;92.03;;
22715;SDS011;11525;51.152;4.456;2024-03-07T05:56:18;183.85;;;92.63;;
22715;SDS011;11525;51.152;4.456;2024-03-07T05:58:44;183.25;;;90.07;;
22715;SDS011;11525;51.152;4.456;2024-03-07T06:01:10;192.57;;;90.13;;
22715;SDS011;11525;51.152;4.456;2024-03-07T06:03:36;193.48;;;85.18;;
22715;SDS011;11525;51.152;4.456;2024-03-07T06:06:02;170.35;;;91.78;;
22715;SDS011;11525;51.152;4.456;2024-03-07T06:08:30;197.15;;;94.30;;
22715;SDS011;11525;51.152;4.456;2024-03-07T06:10:56;182.32;;;87.80;;
22715;SDS011;11525;51.152;4.456;2024-03-07T06:13:23;193.77;;;97.57;;
22715;SDS011;11525;51.152;4.456;2024-03-07T06:15:48;181.00;;;88.90;;
22715;SDS011;11525;51.152;4.456;2024-03-07T06:18:14;203.40;;;97.45;;
22715;SDS011;11525;51.152;4.456;2024-03-07T06:20:40;211.23;;;101.22;;
22715;SDS011;11525;51.152;4.456;2024-03-07T06:23:07;204.88;;;96.35;;
22715;SDS011;11525;51.152;4.456;2024-03-07T06:25:33;212.48;;;103.15;;
22715;SDS011;11525;51.152;4.456;2024-03-07T06:28:03;194.75;;;94.95;;
22715;SDS011;11525;51.152;4.456;2024-03-07T06:30:36;194.48;;;98.72;;
22715;SDS011;11525;51.152;4.456;2024-03-07T06:33:04;200.73;;;98.18;;
22715;SDS011;11525;51.152;4.456;2024-03-07T06:35:30;217.23;;;100.88;;
22715;SDS011;11525;51.152;4.456;2024-03-07T06:37:56;236.52;;;100.22;;
22715;SDS011;11525;51.152;4.456;2024-03-07T06:40:22;215.02;;;99.07;;
22715;SDS011;11525;51.152;4.456;2024-03-07T06:42:50;225.27;;;100.30;;
22715;SDS011;11525;51.152;4.456;2024-03-07T06:45:17;247.23;;;99.03;;
22715;SDS011;11525;51.152;4.456;2024-03-07T06:47:43;220.05;;;102.93;;
22715;SDS011;11525;51.152;4.456;2024-03-07T06:50:09;201.93;;;99.80;;
22715;SDS011;11525;51.152;4.456;2024-03-07T06:52:39;197.07;;;96.07;;
22715;SDS011;11525;51.152;4.456;2024-03-07T06:55:05;219.45;;;100.88;;
22715;SDS011;11525;51.152;4.456;2024-03-07T06:57:32;201.65;;;99.93;;
22715;SDS011;11525;51.152;4.456;2024-03-07T06:59:59;201.90;;;101.40;;
22715;SDS011;11525;51.152;4.456;2024-03-07T07:02:25;197.30;;;93.80;;
22715;SDS011;11525;51.152;4.456;2024-03-07T07:04:52;183.77;;;94.95;;
22715;SDS011;11525;51.152;4.456;2024-03-07T07:07:18;177.05;;;89.28;;
22715;SDS011;11525;51.152;4.456;2024-03-07T07:09:45;167.05;;;86.05;;
22715;SDS011;11525;51.152;4.456;2024-03-07T07:12:11;167.07;;;90.03;;
22715;SDS011;11525;51.152;4.456;2024-03-07T07:14:36;164.77;;;90.88;;
22715;SDS011;11525;51.152;4.456;2024-03-07T07:17:04;163.82;;;87.22;;
22715;SDS011;11525;51.152;4.456;2024-03-07T07:19:29;163.65;;;87.53;;
22715;SDS011;11525;51.152;4.456;2024-03-07T07:21:55;165.40;;;87.55;;
22715;SDS011;11525;51.152;4.456;2024-03-07T07:24:21;168.52;;;88.57;;
22715;SDS011;11525;51.152;4.456;2024-03-07T07:26:48;156.32;;;84.07;;
22715;SDS011;11525;51.152;4.456;2024-03-07T07:29:15;157.73;;;89.40;;
22715;SDS011;11525;51.152;4.456;2024-03-07T07:31:41;148.00;;;88.30;;
22715;SDS011;11525;51.152;4.456;2024-03-07T07:34:07;148.45;;;86.50;;
22715;SDS011;11525;51.152;4.456;2024-03-07T07:36:32;146.38;;;85.07;;
22715;SDS011;11525;51.152;4.456;2024-03-07T07:38:58;145.60;;;82.78;;
22715;SDS011;11525;51.152;4.456;2024-03-07T07:41:24;147.45;;;84.93;;
22715;SDS011;11525;51.152;4.456;2024-03-07T07:43:50;133.85;;;81.25;;
22715;SDS011;11525;51.152;4.456;2024-03-07T07:46:16;139.93;;;82.97;;
22715;SDS011;11525;51.152;4.456;2024-03-07T07:48:43;151.30;;;85.40;;
22715;SDS011;11525;51.152;4.456;2024-03-07T07:51:09;144.27;;;85.25;;
22715;SDS011;11525;51.152;4.456;2024-03-07T07:53:34;143.38;;;87.13;;
22715;SDS011;11525;51.152;4.456;2024-03-07T07:56:00;140.13;;;83.43;;
22715;SDS011;11525;51.152;4.456;2024-03-07T07:58:26;145.90;;;87.78;;
22715;SDS011;11525;51.152;4.456;2024-03-07T08:00:52;140.02;;;86.93;;
22715;SDS011;11525;51.152;4.456;2024-03-07T08:03:17;162.95;;;93.43;;
22715;SDS011;11525;51.152;4.456;2024-03-07T08:05:43;149.25;;;88.57;;
22715;SDS011;11525;51.152;4.456;2024-03-07T08:08:12;144.85;;;88.68;;
22715;SDS011;11525;51.152;4.456;2024-03-07T08:10:41;133.93;;;84.05;;
22715;SDS011;11525;51.152;4.456;2024-03-07T08:13:07;135.52;;;84.63;;
22715;SDS011;11525;51.152;4.456;2024-03-07T08:15:36;133.18;;;83.57;;
22715;SDS011;11525;51.152;4.456;2024-03-07T08:18:02;135.23;;;83.28;;
22715;SDS011;11525;51.152;4.456;2024-03-07T08:20:33;133.18;;;82.57;;
22715;SDS011;11525;51.152;4.456;2024-03-07T08:22:59;129.95;;;83.43;;
22715;SDS011;11525;51.152;4.456;2024-03-07T08:25:26;124.35;;;80.70;;
22715;SDS011;11525;51.152;4.456;2024-03-07T08:27:54;122.15;;;79.43;;
22715;SDS011;11525;51.152;4.456;2024-03-07T08:30:22;123.47;;;81.82;;
22715;SDS011;11525;51.152;4.456;2024-03-07T08:32:49;117.28;;;75.57;;
22715;SDS011;11525;51.152;4.456;2024-03-07T08:35:19;118.90;;;76.10;;
22715;SDS011;11525;51.152;4.456;2024-03-07T08:37:45;116.60;;;75.18;;
22715;SDS011;11525;51.152;4.456;2024-03-07T08:40:17;114.00;;;71.97;;
22715;SDS011;11525;51.152;4.456;2024-03-07T08:42:44;106.78;;;71.22;;
22715;SDS011;11525;51.152;4.456;2024-03-07T08:45:11;101.18;;;66.82;;
22715;SDS011;11525;51.152;4.456;2024-03-07T08:47:42;101.45;;;64.22;;
22715;SDS011;11525;51.152;4.456;2024-03-07T08:50:08;89.63;;;58.88;;
22715;SDS011;11525;51.152;4.456;2024-03-07T08:52:35;81.70;;;55.13;;
22715;SDS011;11525;51.152;4.456;2024-03-07T08:55:02;77.93;;;53.42;;
22715;SDS011;11525;51.152;4.456;2024-03-07T08:57:28;78.85;;;52.55;;
22715;SDS011;11525;51.152;4.456;2024-03-07T08:59:55;73.22;;;50.90;;
22715;SDS011;11525;51.152;4.456;2024-03-07T09:02:21;76.07;;;52.47;;
22715;SDS011;11525;51.152;4.456;2024-03-07T09:04:47;71.70;;;49.97;;
22715;SDS011;11525;51.152;4.456;2024-03-07T09:07:13;69.97;;;47.63;;
22715;SDS011;11525;51.152;4.456;2024-03-07T09:09:42;62.40;;;46.50;;
22715;SDS011;11525;51.152;4.456;2024-03-07T09:12:10;67.88;;;46.17;;
22715;SDS011;11525;51.152;4.456;2024-03-07T09:14:36;64.95;;;45.13;;
22715;SDS011;11525;51.152;4.456;2024-03-07T09:17:02;66.43;;;45.67;;
22715;SDS011;11525;51.152;4.456;2024-03-07T09:19:29;56.08;;;41.30;;
22715;SDS011;11525;51.152;4.456;2024-03-07T09:21:58;55.50;;;40.70;;
22715;SDS011;11525;51.152;4.456;2024-03-07T09:24:25;54.40;;;39.58;;
22715;SDS011;11525;51.152;4.456;2024-03-07T09:26:50;63.00;;;42.25;;
22715;SDS011;11525;51.152;4.456;2024-03-07T09:29:17;60.67;;;41.10;;
22715;SDS011;11525;51.152;4.456;2024-03-07T09:31:44;54.97;;;41.33;;
22715;SDS011;11525;51.152;4.456;2024-03-07T09:34:11;58.42;;;38.50;;
22715;SDS011;11525;51.152;4.456;2024-03-07T09:36:38;54.08;;;40.72;;
22715;SDS011;11525;51.152;4.456;2024-03-07T09:39:06;52.92;;;40.20;;
22715;SDS011;11525;51.152;4.456;2024-03-07T09:41:33;57.28;;;40.78;;
22715;SDS011;11525;51.152;4.456;2024-03-07T09:43:59;51.53;;;37.35;;
22715;SDS011;11525;51.152;4.456;2024-03-07T09:46:26;54.03;;;37.47;;
22715;SDS011;11525;51.152;4.456;2024-03-07T09:48:52;54.65;;;38.88;;
22715;SDS011;11525;51.152;4.456;2024-03-07T09:51:19;52.00;;;37.58;;
22715;SDS011;11525;51.152;4.456;2024-03-07T09:53:49;50.38;;;36.25;;
22715;SDS011;11525;51.152;4.456;2024-03-07T09:56:19;51.25;;;37.92;;
22715;SDS011;11525;51.152;4.456;2024-03-07T09:58:48;51.60;;;36.75;;
22715;SDS011;11525;51.152;4.456;2024-03-07T10:01:19;50.70;;;37.38;;
22715;SDS011;11525;51.152;4.456;2024-03-07T10:03:46;49.78;;;37.60;;
22715;SDS011;11525;51.152;4.456;2024-03-07T10:06:13;51.60;;;37.47;;
22715;SDS011;11525;51.152;4.456;2024-03-07T10:08:42;53.78;;;37.45;;
22715;SDS011;11525;51.152;4.456;2024-03-07T10:11:08;50.90;;;36.80;;
22715;SDS011;11525;51.152;4.456;2024-03-07T10:13:34;52.05;;;37.13;;
22715;SDS011;11525;51.152;4.456;2024-03-07T10:16:03;50.25;;;36.47;;
22715;SDS011;11525;51.152;4.456;2024-03-07T10:18:31;48.30;;;35.75;;
22715;SDS011;11525;51.152;4.456;2024-03-07T10:20:57;49.03;;;34.55;;
22715;SDS011;11525;51.152;4.456;2024-03-07T10:23:23;48.05;;;35.75;;
22715;SDS011;11525;51.152;4.456;2024-03-07T10:25:52;48.78;;;36.97;;
22715;SDS011;11525;51.152;4.456;2024-03-07T10:28:20;45.30;;;35.38;;
22715;SDS011;11525;51.152;4.456;2024-03-07T10:30:46;46.40;;;35.25;;
22715;SDS011;11525;51.152;4.456;2024-03-07T10:33:15;49.70;;;37.30;;
22715;SDS011;11525;51.152;4.456;2024-03-07T10:35:42;44.15;;;34.20;;
22715;SDS011;11525;51.152;4.456;2024-03-07T10:38:11;47.05;;;34.92;;
22715;SDS011;11525;51.152;4.456;2024-03-07T10:40:38;47.67;;;33.90;;
22715;SDS011;11525;51.152;4.456;2024-03-07T10:43:09;48.58;;;35.85;;
22715;SDS011;11525;51.152;4.456;2024-03-07T10:45:46;49.15;;;34.97;;
22715;SDS011;11525;51.152;4.456;2024-03-07T10:48:13;45.15;;;32.90;;
22715;SDS011;11525;51.152;4.456;2024-03-07T10:50:48;49.20;;;33.90;;
22715;SDS011;11525;51.152;4.456;2024-03-07T10:53:31;46.63;;;35.25;;
22715;SDS011;11525;51.152;4.456;2024-03-07T10:58:47;53.75;;;35.33;;
22715;SDS011;11525;51.152;4.456;2024-03-07T11:01:16;44.85;;;34.10;;
22715;SDS011;11525;51.152;4.456;2024-03-07T11:03:45;48.20;;;35.17;;
22715;SDS011;11525;51.152;4.456;2024-03-07T11:06:12;48.47;;;34.55;;
22715;SDS011;11525;51.152;4.456;2024-03-07T11:08:39;48.15;;;37.15;;
22715;SDS011;11525;51.152;4.456;2024-03-07T11:11:06;46.13;;;33.53;;
22715;SDS011;11525;51.152;4.456;2024-03-07T11:13:33;46.60;;;34.17;;
22715;SDS011;11525;51.152;4.456;2024-03-07T11:15:59;43.05;;;33.70;;
22715;SDS011;11525;51.152;4.456;2024-03-07T11:18:26;47.90;;;35.70;;
22715;SDS011;11525;51.152;4.456;2024-03-07T11:20:52;46.17;;;34.83;;
22715;SDS011;11525;51.152;4.456;2024-03-07T11:23:28;48.63;;;35.95;;
22715;SDS011;11525;51.152;4.456;2024-03-07T11:26:07;54.08;;;36.30;;
22715;SDS011;11525;51.152;4.456;2024-03-07T11:28:37;47.58;;;36.03;;
22715;SDS011;11525;51.152;4.456;2024-03-07T11:31:13;49.40;;;36.97;;
22715;SDS011;11525;51.152;4.456;2024-03-07T11:36:46;51.47;;;37.42;;
22715;SDS011;11525;51.152;4.456;2024-03-07T11:42:28;46.40;;;36.53;;
22715;SDS011;11525;51.152;4.456;2024-03-07T11:45:00;46.95;;;35.85;;
22715;SDS011;11525;51.152;4.456;2024-03-07T11:47:36;50.97;;;37.30;;
22715;SDS011;11525;51.152;4.456;2024-03-07T11:50:06;49.63;;;37.33;;
22715;SDS011;11525;51.152;4.456;2024-03-07T11:52:38;47.90;;;35.92;;
22715;SDS011;11525;51.152;4.456;2024-03-07T11:55:09;51.92;;;38.83;;
22715;SDS011;11525;51.152;4.456;2024-03-07T11:57:35;47.70;;;38.53;;
22715;SDS011;11525;51.152;4.456;2024-03-07T12:00:03;48.70;;;38.60;;
22715;SDS011;11525;51.152;4.456;2024-03-07T12:02:36;56.28;;;41.95;;
22715;SDS011;11525;51.152;4.456;2024-03-07T12:05:03;53.65;;;42.08;;
22715;SDS011;11525;51.152;4.456;2024-03-07T12:07:32;48.75;;;36.50;;
22715;SDS011;11525;51.152;4.456;2024-03-07T12:09:59;51.53;;;40.65;;
22715;SDS011;11525;51.152;4.456;2024-03-07T12:12:28;54.42;;;42.78;;
22715;SDS011;11525;51.152;4.456;2024-03-07T12:14:54;52.80;;;40.35;;
22715;SDS011;11525;51.152;4.456;2024-03-07T12:17:21;52.38;;;42.92;;
22715;SDS011;11525;51.152;4.456;2024-03-07T12:19:47;55.22;;;43.22;;
22715;SDS011;11525;51.152;4.456;2024-03-07T12:22:18;51.60;;;41.53;;
22715;SDS011;11525;51.152;4.456;2024-03-07T12:24:47;53.53;;;42.58;;
22715;SDS011;11525;51.152;4.456;2024-03-07T12:27:24;54.58;;;44.10;;
22715;SDS011;11525;51.152;4.456;2024-03-07T12:29:50;55.40;;;44.47;;
22715;SDS011;11525;51.152;4.456;2024-03-07T12:32:18;56.22;;;43.70;;
22715;SDS011;11525;51.152;4.456;2024-03-07T12:34:43;58.30;;;45.55;;
22715;SDS011;11525;51.152;4.456;2024-03-07T12:37:11;58.97;;;44.22;;
22715;SDS011;11525;51.152;4.456;2024-03-07T12:39:41;58.10;;;44.25;;
22715;SDS011;11525;51.152;4.456;2024-03-07T12:42:12;54.20;;;43.65;;
22715;SDS011;11525;51.152;4.456;2024-03-07T12:44:45;54.13;;;42.42;;
22715;SDS011;11525;51.152;4.456;2024-03-07T12:47:12;53.63;;;44.33;;
22715;SDS011;11525;51.152;4.456;2024-03-07T12:49:39;53.70;;;43.33;;
22715;SDS011;11525;51.152;4.456;2024-03-07T12:52:08;53.40;;;41.92;;
22715;SDS011;11525;51.152;4.456;2024-03-07T12:54:35;55.42;;;42.83;;
22715;SDS011;11525;51.152;4.456;2024-03-07T12:57:07;51.80;;;40.33;;
22715;SDS011;11525;51.152;4.456;2024-03-07T12:59:43;52.58;;;41.33;;
22715;SDS011;11525;51.152;4.456;2024-03-07T13:02:09;50.90;;;39.13;;
22715;SDS011;11525;51.152;4.456;2024-03-07T13:04:35;51.15;;;37.42;;
22715;SDS011;11525;51.152;4.456;2024-03-07T13:07:05;52.70;;;37.95;;
22715;SDS011;11525;51.152;4.456;2024-03-07T13:09:32;49.20;;;39.38;;
22715;SDS011;11525;51.152;4.456;2024-03-07T13:11:58;48.47;;;37.83;;
22715;SDS011;11525;51.152;4.456;2024-03-07T13:14:28;49.35;;;40.08;;
22715;SDS011;11525;51.152;4.456;2024-03-07T13:17:04;47.25;;;38.70;;
22715;SDS011;11525;51.152;4.456;2024-03-07T13:19:31;47.03;;;38.90;;
22715;SDS011;11525;51.152;4.456;2024-03-07T13:21:57;50.20;;;38.83;;
22715;SDS011;11525;51.152;4.456;2024-03-07T13:24:24;47.92;;;39.30;;
22715;SDS011;11525;51.152;4.456;2024-03-07T13:26:51;46.17;;;35.67;;
22715;SDS011;11525;51.152;4.456;2024-03-07T13:29:17;44.53;;;35.92;;
22715;SDS011;11525;51.152;4.456;2024-03-07T13:31:49;43.45;;;34.90;;
22715;SDS011;11525;51.152;4.456;2024-03-07T13:34:16;42.85;;;32.58;;
22715;SDS011;11525;51.152;4.456;2024-03-07T13:36:42;42.90;;;32.50;;
22715;SDS011;11525;51.152;4.456;2024-03-07T13:39:09;41.45;;;31.50;;
22715;SDS011;11525;51.152;4.456;2024-03-07T13:41:40;40.72;;;30.98;;
22715;SDS011;11525;51.152;4.456;2024-03-07T13:44:06;33.00;;;28.25;;
22715;SDS011;11525;51.152;4.456;2024-03-07T13:46:32;35.45;;;27.92;;
22715;SDS011;11525;51.152;4.456;2024-03-07T13:49:02;34.90;;;28.52;;
22715;SDS011;11525;51.152;4.456;2024-03-07T13:51:41;39.90;;;30.98;;
22715;SDS011;11525;51.152;4.456;2024-03-07T13:54:21;38.53;;;29.27;;
22715;SDS011;11525;51.152;4.456;2024-03-07T14:08:40;36.10;;;27.88;;
22715;SDS011;11525;51.152;4.456;2024-03-07T14:23:34;33.42;;;25.65;;
22715;SDS011;11525;51.152;4.456;2024-03-07T14:29:46;33.42;;;26.25;;
22715;SDS011;11525;51.152;4.456;2024-03-07T14:32:19;32.67;;;24.38;;
22715;SDS011;11525;51.152;4.456;2024-03-07T14:34:47;30.92;;;22.88;;
22715;SDS011;11525;51.152;4.456;2024-03-07T14:37:55;30.23;;;23.27;;
22715;SDS011;11525;51.152;4.456;2024-03-07T14:40:48;36.58;;;24.40;;
22715;SDS011;11525;51.152;4.456;2024-03-07T14:43:15;29.58;;;24.17;;
22715;SDS011;11525;51.152;4.456;2024-03-07T14:45:42;30.60;;;22.92;;
22715;SDS011;11525;51.152;4.456;2024-03-07T14:48:08;31.98;;;25.73;;
22715;SDS011;11525;51.152;4.456;2024-03-07T14:50:37;27.27;;;22.38;;
22715;SDS011;11525;51.152;4.456;2024-03-07T14:53:06;31.02;;;24.10;;